

Wyoming Mesonet
Water Resources Data System and State Climate Office
SEO WACNet, UW USACE UMRB, USDA-ARS, BLM
| Wind | Soil | |||||||||||||||||||
| Temp | Precip | Speed | Dir | Gust | Dir | Humidity | Pressure | Solar | Snow | Temperature (Deg F) | Moisture (%) | |||||||||
| Date Time (MST) | (F) | (in) | (mph) | (deg) | (mph) | (deg) | (%) | (Mbars) | (w/m^2) | (in) | 5cm | 10cm | 20cm | 50cm | 1m | 5cm | 10cm | 20cm | 50cm | 1m |
| 2026-08-30 00:00:00 | 64.58 | 0.00 | 3.14 | 247 | 12.67 | 222 | 49.8 | 860.0 | 0.0 | -0.1 | 73.40 | 77.90 | 78.80 | 76.64 | 74.30 | 17.4% | 30.2% | 31.7% | 28.8% | 21.1% |
| 2026-08-30 01:00:00 | 66.09 | 0.00 | 6.15 | 238 | 8.94 | 240 | 48.1 | 859.0 | 0.0 | -0.1 | 72.32 | 77.18 | 78.62 | 76.64 | 74.30 | 17.5% | 30.0% | 31.9% | 28.8% | 21.2% |
| 2026-08-30 02:00:00 | 66.49 | 0.00 | 8.01 | 261 | 14.91 | 225 | 47.6 | 859.0 | 0.0 | -0.0 | 71.60 | 76.46 | 78.44 | 76.64 | 74.12 | 17.4% | 30.0% | 31.7% | 29.0% | 21.0% |
| 2026-08-30 03:00:00 | 63.09 | 0.00 | 4.17 | 223 | 11.80 | 262 | 53.3 | 859.0 | 0.0 | -0.2 | 70.70 | 75.92 | 78.08 | 76.64 | 74.30 | 17.2% | 30.0% | 31.7% | 28.8% | 21.0% |
| 2026-08-30 04:00:00 | 65.23 | 0.00 | 4.12 | 262 | 12.67 | 249 | 51.7 | 860.0 | 0.0 | -0.1 | 69.98 | 75.20 | 77.90 | 76.64 | 74.30 | 17.3% | 29.8% | 31.8% | 28.8% | 21.0% |
| 2026-08-30 05:00:00 | 68.83 | 0.00 | 12.28 | 262 | 20.24 | 249 | 48.5 | 859.0 | 0.0 | -0.0 | 70.16 | 74.66 | 77.54 | 76.64 | 74.30 | 17.3% | 29.7% | 31.6% | 28.8% | 21.0% |
| 2026-08-30 06:00:00 | 69.28 | 0.00 | 12.48 | 251 | 20.49 | 254 | 49.9 | 860.0 | 51.1 | 0.0 | 70.52 | 74.30 | 77.36 | 76.64 | 74.30 | 17.1% | 29.7% | 31.6% | 28.8% | 21.2% |
| 2026-08-30 07:00:00 | 71.60 | 0.00 | 16.11 | 251 | 26.33 | 247 | 47.1 | 860.0 | 292.2 | 0.0 | 70.52 | 74.12 | 77.00 | 76.64 | 74.30 | 17.2% | 29.5% | 31.7% | 28.8% | 21.0% |
| 2026-08-30 08:00:00 | 76.23 | 0.00 | 24.05 | 260 | 32.30 | 264 | 37.7 | 860.0 | 537.0 | 0.0 | 72.14 | 74.12 | 76.82 | 76.64 | 74.30 | 17.3% | 29.5% | 31.7% | 28.9% | 21.1% |
| 2026-08-30 09:00:00 | 75.51 | 0.00 | 20.78 | 237 | 34.40 | 255 | 39.0 | 860.0 | 627.2 | 0.0 | 75.02 | 74.66 | 76.64 | 76.64 | 74.30 | 17.4% | 29.5% | 31.7% | 28.9% | 21.0% |
| 2026-08-30 10:00:00 | 79.20 | 0.00 | 19.84 | 266 | 32.68 | 245 | 33.3 | 860.0 | 781.5 | 0.2 | 77.90 | 75.56 | 76.46 | 76.64 | 74.30 | 17.4% | 29.6% | 31.7% | 28.8% | 21.1% |
| 2026-08-30 11:00:00 | 82.47 | 0.00 | 17.10 | 276 | 28.07 | 264 | 27.0 | 860.0 | 803.0 | 0.0 | 81.50 | 76.64 | 76.28 | 76.46 | 74.30 | 17.5% | 29.8% | 31.6% | 28.8% | 21.1% |
| 2026-08-30 12:00:00 | 85.62 | 0.00 | 18.57 | 260 | 31.05 | 232 | 23.2 | 860.0 | 978.0 | 0.0 | 84.74 | 78.26 | 76.46 | 76.46 | 74.30 | 17.7% | 29.9% | 31.7% | 28.8% | 21.0% |
| 2026-08-30 13:00:00 | 82.62 | 0.00 | 17.73 | 275 | 34.54 | 273 | 25.7 | 860.0 | 476.9 | 0.0 | 86.90 | 79.52 | 76.64 | 76.46 | 74.30 | 17.7% | 29.9% | 31.5% | 28.8% | 21.0% |
| 2026-08-30 14:00:00 | 83.07 | 0.00 | 20.09 | 265 | 31.43 | 259 | 26.1 | 860.0 | 297.6 | -0.0 | 85.46 | 80.78 | 76.82 | 76.28 | 74.30 | 17.7% | 29.9% | 31.7% | 28.7% | 21.0% |
| 2026-08-30 15:00:00 | 81.73 | 0.00 | 20.76 | 252 | 34.90 | 257 | 27.5 | 860.0 | 263.0 | 0.0 | 85.28 | 81.14 | 77.00 | 76.28 | 74.30 | 17.7% | 30.1% | 31.7% | 28.7% | 21.1% |
| 2026-08-30 16:00:00 | 79.63 | 0.00 | 19.66 | 256 | 30.31 | 269 | 30.4 | 860.0 | 200.8 | -0.0 | 83.66 | 81.32 | 77.18 | 76.28 | 74.30 | 17.6% | 30.1% | 31.7% | 28.7% | 21.0% |
| 2026-08-30 17:00:00 | 79.79 | 0.00 | 19.93 | 256 | 28.57 | 268 | 28.6 | 860.0 | 280.5 | -0.1 | 82.40 | 81.14 | 77.54 | 76.28 | 74.30 | 17.5% | 30.0% | 31.7% | 28.8% | 21.1% |
| 2026-08-30 18:00:00 | 77.56 | 0.00 | 10.69 | 259 | 27.09 | 272 | 28.9 | 860.0 | 57.3 | -0.1 | 80.60 | 80.78 | 77.72 | 76.28 | 74.30 | 17.4% | 30.0% | 31.7% | 28.7% | 21.0% |
| 2026-08-30 19:00:00 | 68.40 | 0.00 | 8.58 | 4 | 21.36 | 262 | 47.0 | 861.0 | 0.0 | -0.1 | 78.26 | 80.24 | 77.90 | 76.28 | 74.30 | 17.4% | 30.0% | 31.7% | 28.7% | 21.0% |
| 2026-08-30 20:00:00 | 64.62 | 0.00 | 4.92 | 103 | 9.19 | 79 | 53.4 | 861.0 | 0.0 | -0.1 | 75.92 | 79.52 | 77.90 | 76.10 | 74.30 | 17.1% | 29.9% | 31.7% | 28.7% | 21.0% |
| 2026-08-30 21:00:00 | 65.41 | 0.00 | 4.62 | 183 | 9.07 | 164 | 51.5 | 862.0 | 0.0 | -0.1 | 73.94 | 78.44 | 77.90 | 76.28 | 74.30 | 17.0% | 29.7% | 31.7% | 28.8% | 21.1% |
| 2026-08-30 22:00:00 | 67.82 | 0.00 | 6.92 | 217 | 13.04 | 206 | 41.5 | 862.0 | 0.0 | -0.2 | 72.68 | 77.54 | 77.90 | 76.28 | 74.30 | 16.9% | 29.7% | 31.8% | 28.7% | 21.0% |
| 2026-08-30 23:00:00 | 69.04 | 0.00 | 12.77 | 193 | 18.77 | 191 | 41.3 | 862.0 | 0.0 | -0.1 | 71.96 | 76.64 | 77.72 | 76.28 | 74.30 | 16.7% | 29.5% | 31.6% | 28.7% | 21.0% |